sensor_id;sensor_type;location;lat;lon;timestamp;P1;durP1;ratioP1;P2;durP2;ratioP2
27375;SDS011;14844;51.302;6.354;2022-09-09T00:00:14;8.18;;;3.58;;
27375;SDS011;14844;51.302;6.354;2022-09-09T00:03:27;11.55;;;4.35;;
27375;SDS011;14844;51.302;6.354;2022-09-09T00:05:44;6.85;;;3.00;;
27375;SDS011;14844;51.302;6.354;2022-09-09T00:11:15;9.32;;;3.17;;
27375;SDS011;14844;51.302;6.354;2022-09-09T00:13:48;9.13;;;3.30;;
27375;SDS011;14844;51.302;6.354;2022-09-09T00:16:25;6.75;;;2.80;;
27375;SDS011;14844;51.302;6.354;2022-09-09T00:22:01;7.32;;;3.08;;
27375;SDS011;14844;51.302;6.354;2022-09-09T00:24:42;7.90;;;2.60;;
27375;SDS011;14844;51.302;6.354;2022-09-09T00:27:11;5.20;;;2.30;;
27375;SDS011;14844;51.302;6.354;2022-09-09T00:30:13;6.30;;;2.30;;
27375;SDS011;14844;51.302;6.354;2022-09-09T00:33:33;6.93;;;2.55;;
27375;SDS011;14844;51.302;6.354;2022-09-09T00:35:37;5.07;;;2.22;;
27375;SDS011;14844;51.302;6.354;2022-09-09T00:38:10;9.10;;;3.00;;
27375;SDS011;14844;51.302;6.354;2022-09-09T00:43:28;6.78;;;3.30;;
27375;SDS011;14844;51.302;6.354;2022-09-09T00:48:37;6.68;;;3.22;;
27375;SDS011;14844;51.302;6.354;2022-09-09T00:51:23;8.00;;;3.35;;
27375;SDS011;14844;51.302;6.354;2022-09-09T00:56:36;8.98;;;4.00;;
27375;SDS011;14844;51.302;6.354;2022-09-09T00:59:18;12.73;;;3.95;;
27375;SDS011;14844;51.302;6.354;2022-09-09T01:01:51;14.65;;;4.72;;
27375;SDS011;14844;51.302;6.354;2022-09-09T01:04:21;9.48;;;4.50;;
27375;SDS011;14844;51.302;6.354;2022-09-09T01:07:01;8.35;;;4.00;;
27375;SDS011;14844;51.302;6.354;2022-09-09T01:09:39;15.30;;;4.60;;
27375;SDS011;14844;51.302;6.354;2022-09-09T01:12:15;12.95;;;4.50;;
27375;SDS011;14844;51.302;6.354;2022-09-09T01:14:47;12.93;;;5.43;;
27375;SDS011;14844;51.302;6.354;2022-09-09T01:22:37;24.15;;;12.70;;
27375;SDS011;14844;51.302;6.354;2022-09-09T01:28:17;23.88;;;13.32;;
27375;SDS011;14844;51.302;6.354;2022-09-09T01:30:47;26.67;;;14.63;;
27375;SDS011;14844;51.302;6.354;2022-09-09T01:33:14;29.65;;;15.80;;
27375;SDS011;14844;51.302;6.354;2022-09-09T01:38:19;22.95;;;13.50;;
27375;SDS011;14844;51.302;6.354;2022-09-09T01:40:46;23.80;;;13.43;;
27375;SDS011;14844;51.302;6.354;2022-09-09T01:43:12;28.25;;;15.07;;
27375;SDS011;14844;51.302;6.354;2022-09-09T01:45:39;30.77;;;17.33;;
27375;SDS011;14844;51.302;6.354;2022-09-09T01:48:07;25.77;;;13.80;;
27375;SDS011;14844;51.302;6.354;2022-09-09T01:50:32;19.98;;;13.23;;
27375;SDS011;14844;51.302;6.354;2022-09-09T01:52:58;24.95;;;13.65;;
27375;SDS011;14844;51.302;6.354;2022-09-09T01:55:28;20.92;;;11.90;;
27375;SDS011;14844;51.302;6.354;2022-09-09T02:01:24;37.42;;;16.40;;
27375;SDS011;14844;51.302;6.354;2022-09-09T02:03:54;40.35;;;19.92;;
27375;SDS011;14844;51.302;6.354;2022-09-09T02:06:27;21.42;;;12.25;;
27375;SDS011;14844;51.302;6.354;2022-09-09T02:08:56;25.50;;;14.50;;
27375;SDS011;14844;51.302;6.354;2022-09-09T02:11:25;22.55;;;12.65;;
27375;SDS011;14844;51.302;6.354;2022-09-09T02:13:53;24.55;;;13.85;;
27375;SDS011;14844;51.302;6.354;2022-09-09T02:16:30;25.25;;;13.45;;
27375;SDS011;14844;51.302;6.354;2022-09-09T02:19:21;33.08;;;14.10;;
27375;SDS011;14844;51.302;6.354;2022-09-09T02:21:51;23.98;;;11.75;;
27375;SDS011;14844;51.302;6.354;2022-09-09T02:24:19;20.25;;;10.32;;
27375;SDS011;14844;51.302;6.354;2022-09-09T02:26:46;22.25;;;10.48;;
27375;SDS011;14844;51.302;6.354;2022-09-09T02:29:15;21.77;;;9.63;;
27375;SDS011;14844;51.302;6.354;2022-09-09T02:31:46;18.23;;;8.43;;
27375;SDS011;14844;51.302;6.354;2022-09-09T02:34:14;19.98;;;9.05;;
27375;SDS011;14844;51.302;6.354;2022-09-09T02:36:43;21.42;;;9.23;;
27375;SDS011;14844;51.302;6.354;2022-09-09T02:39:10;16.65;;;7.82;;
27375;SDS011;14844;51.302;6.354;2022-09-09T02:41:37;17.70;;;7.75;;
27375;SDS011;14844;51.302;6.354;2022-09-09T02:44:05;16.75;;;7.55;;
27375;SDS011;14844;51.302;6.354;2022-09-09T02:46:51;17.05;;;7.57;;
27375;SDS011;14844;51.302;6.354;2022-09-09T02:49:53;16.67;;;7.85;;
27375;SDS011;14844;51.302;6.354;2022-09-09T02:55:54;14.57;;;7.47;;
27375;SDS011;14844;51.302;6.354;2022-09-09T02:58:26;17.70;;;7.50;;
27375;SDS011;14844;51.302;6.354;2022-09-09T03:00:52;24.83;;;9.85;;
27375;SDS011;14844;51.302;6.354;2022-09-09T03:03:18;17.00;;;7.93;;
27375;SDS011;14844;51.302;6.354;2022-09-09T03:05:45;16.00;;;7.88;;
27375;SDS011;14844;51.302;6.354;2022-09-09T03:08:11;19.08;;;8.88;;
27375;SDS011;14844;51.302;6.354;2022-09-09T03:10:38;23.90;;;8.95;;
27375;SDS011;14844;51.302;6.354;2022-09-09T03:13:03;21.45;;;8.73;;
27375;SDS011;14844;51.302;6.354;2022-09-09T03:15:30;25.80;;;9.90;;
27375;SDS011;14844;51.302;6.354;2022-09-09T03:17:57;22.88;;;9.00;;
27375;SDS011;14844;51.302;6.354;2022-09-09T03:20:24;19.38;;;8.80;;
27375;SDS011;14844;51.302;6.354;2022-09-09T03:22:52;25.15;;;9.38;;
27375;SDS011;14844;51.302;6.354;2022-09-09T03:25:18;18.55;;;9.13;;
27375;SDS011;14844;51.302;6.354;2022-09-09T03:27:44;21.73;;;9.52;;
27375;SDS011;14844;51.302;6.354;2022-09-09T03:30:09;18.13;;;8.82;;
27375;SDS011;14844;51.302;6.354;2022-09-09T03:32:35;31.83;;;11.30;;
27375;SDS011;14844;51.302;6.354;2022-09-09T03:35:01;17.83;;;9.30;;
27375;SDS011;14844;51.302;6.354;2022-09-09T03:37:27;26.80;;;10.80;;
27375;SDS011;14844;51.302;6.354;2022-09-09T03:39:53;18.42;;;9.10;;
27375;SDS011;14844;51.302;6.354;2022-09-09T03:42:19;28.27;;;11.80;;
27375;SDS011;14844;51.302;6.354;2022-09-09T03:44:46;20.45;;;9.13;;
27375;SDS011;14844;51.302;6.354;2022-09-09T03:47:15;30.65;;;11.68;;
27375;SDS011;14844;51.302;6.354;2022-09-09T03:49:45;26.30;;;10.35;;
27375;SDS011;14844;51.302;6.354;2022-09-09T03:52:10;24.85;;;10.07;;
27375;SDS011;14844;51.302;6.354;2022-09-09T03:54:36;28.67;;;10.85;;
27375;SDS011;14844;51.302;6.354;2022-09-09T03:57:02;21.15;;;8.93;;
27375;SDS011;14844;51.302;6.354;2022-09-09T03:59:28;24.98;;;8.68;;
27375;SDS011;14844;51.302;6.354;2022-09-09T04:01:54;23.48;;;8.77;;
27375;SDS011;14844;51.302;6.354;2022-09-09T04:04:19;23.58;;;7.68;;
27375;SDS011;14844;51.302;6.354;2022-09-09T04:06:45;24.77;;;8.52;;
27375;SDS011;14844;51.302;6.354;2022-09-09T04:09:13;16.05;;;7.10;;
27375;SDS011;14844;51.302;6.354;2022-09-09T04:11:39;21.23;;;8.50;;
27375;SDS011;14844;51.302;6.354;2022-09-09T04:14:04;19.17;;;8.25;;
27375;SDS011;14844;51.302;6.354;2022-09-09T04:16:31;22.98;;;8.02;;
27375;SDS011;14844;51.302;6.354;2022-09-09T04:18:57;26.88;;;8.25;;
27375;SDS011;14844;51.302;6.354;2022-09-09T04:21:24;29.35;;;9.30;;
27375;SDS011;14844;51.302;6.354;2022-09-09T04:23:50;26.45;;;9.10;;
27375;SDS011;14844;51.302;6.354;2022-09-09T04:26:16;19.50;;;7.32;;
27375;SDS011;14844;51.302;6.354;2022-09-09T04:28:42;19.45;;;7.70;;
27375;SDS011;14844;51.302;6.354;2022-09-09T04:31:09;18.50;;;6.72;;
27375;SDS011;14844;51.302;6.354;2022-09-09T04:33:39;19.35;;;7.07;;
27375;SDS011;14844;51.302;6.354;2022-09-09T04:36:05;18.52;;;6.55;;
27375;SDS011;14844;51.302;6.354;2022-09-09T04:38:31;18.02;;;6.80;;
27375;SDS011;14844;51.302;6.354;2022-09-09T04:40:57;22.60;;;6.90;;
27375;SDS011;14844;51.302;6.354;2022-09-09T04:43:22;21.42;;;5.97;;
27375;SDS011;14844;51.302;6.354;2022-09-09T04:45:50;22.67;;;7.10;;
27375;SDS011;14844;51.302;6.354;2022-09-09T04:48:16;20.80;;;6.55;;
27375;SDS011;14844;51.302;6.354;2022-09-09T04:50:42;19.88;;;7.28;;
27375;SDS011;14844;51.302;6.354;2022-09-09T04:53:08;19.85;;;6.72;;
27375;SDS011;14844;51.302;6.354;2022-09-09T04:55:34;19.20;;;6.55;;
27375;SDS011;14844;51.302;6.354;2022-09-09T04:58:04;28.27;;;6.72;;
27375;SDS011;14844;51.302;6.354;2022-09-09T05:00:31;19.27;;;7.03;;
27375;SDS011;14844;51.302;6.354;2022-09-09T05:02:57;18.88;;;6.93;;
27375;SDS011;14844;51.302;6.354;2022-09-09T05:05:22;20.05;;;6.72;;
27375;SDS011;14844;51.302;6.354;2022-09-09T05:07:48;23.70;;;7.75;;
27375;SDS011;14844;51.302;6.354;2022-09-09T05:10:14;28.98;;;6.68;;
27375;SDS011;14844;51.302;6.354;2022-09-09T05:12:41;20.00;;;6.25;;
27375;SDS011;14844;51.302;6.354;2022-09-09T05:15:07;25.30;;;6.57;;
27375;SDS011;14844;51.302;6.354;2022-09-09T05:17:33;25.85;;;6.22;;
27375;SDS011;14844;51.302;6.354;2022-09-09T05:19:58;22.13;;;5.82;;
27375;SDS011;14844;51.302;6.354;2022-09-09T05:22:24;21.98;;;6.40;;
27375;SDS011;14844;51.302;6.354;2022-09-09T05:24:50;20.10;;;6.43;;
27375;SDS011;14844;51.302;6.354;2022-09-09T05:27:16;21.05;;;6.35;;
27375;SDS011;14844;51.302;6.354;2022-09-09T05:29:45;22.25;;;6.20;;
27375;SDS011;14844;51.302;6.354;2022-09-09T05:32:11;21.75;;;7.15;;
27375;SDS011;14844;51.302;6.354;2022-09-09T05:34:38;24.25;;;7.15;;
27375;SDS011;14844;51.302;6.354;2022-09-09T05:37:04;20.10;;;6.28;;
27375;SDS011;14844;51.302;6.354;2022-09-09T05:39:30;22.33;;;6.28;;
27375;SDS011;14844;51.302;6.354;2022-09-09T05:41:55;21.73;;;7.93;;
27375;SDS011;14844;51.302;6.354;2022-09-09T05:44:22;22.45;;;7.18;;
27375;SDS011;14844;51.302;6.354;2022-09-09T05:46:49;21.33;;;6.38;;
27375;SDS011;14844;51.302;6.354;2022-09-09T05:49:15;17.38;;;6.05;;
27375;SDS011;14844;51.302;6.354;2022-09-09T05:51:41;22.83;;;6.65;;
27375;SDS011;14844;51.302;6.354;2022-09-09T05:54:08;19.10;;;6.57;;
27375;SDS011;14844;51.302;6.354;2022-09-09T05:56:34;24.38;;;7.00;;
27375;SDS011;14844;51.302;6.354;2022-09-09T05:59:00;19.10;;;5.43;;
27375;SDS011;14844;51.302;6.354;2022-09-09T06:01:27;21.63;;;5.93;;
27375;SDS011;14844;51.302;6.354;2022-09-09T06:03:55;22.33;;;5.57;;
27375;SDS011;14844;51.302;6.354;2022-09-09T06:06:21;16.98;;;5.55;;
27375;SDS011;14844;51.302;6.354;2022-09-09T06:08:53;20.02;;;5.55;;
27375;SDS011;14844;51.302;6.354;2022-09-09T06:11:28;21.02;;;5.50;;
27375;SDS011;14844;51.302;6.354;2022-09-09T06:13:56;17.67;;;5.35;;
27375;SDS011;14844;51.302;6.354;2022-09-09T06:16:22;20.08;;;5.10;;
27375;SDS011;14844;51.302;6.354;2022-09-09T06:18:49;16.33;;;4.88;;
27375;SDS011;14844;51.302;6.354;2022-09-09T06:21:17;22.85;;;5.97;;
27375;SDS011;14844;51.302;6.354;2022-09-09T06:23:44;24.50;;;5.22;;
27375;SDS011;14844;51.302;6.354;2022-09-09T06:26:14;13.63;;;4.45;;
27375;SDS011;14844;51.302;6.354;2022-09-09T06:28:48;18.92;;;4.97;;
27375;SDS011;14844;51.302;6.354;2022-09-09T06:31:16;18.05;;;4.43;;
27375;SDS011;14844;51.302;6.354;2022-09-09T06:33:47;16.27;;;4.32;;
27375;SDS011;14844;51.302;6.354;2022-09-09T06:38:41;14.77;;;4.18;;
27375;SDS011;14844;51.302;6.354;2022-09-09T06:41:08;17.30;;;3.92;;
27375;SDS011;14844;51.302;6.354;2022-09-09T06:43:34;21.20;;;4.03;;
27375;SDS011;14844;51.302;6.354;2022-09-09T06:48:30;18.50;;;4.47;;
27375;SDS011;14844;51.302;6.354;2022-09-09T06:51:03;18.25;;;4.47;;
27375;SDS011;14844;51.302;6.354;2022-09-09T06:53:31;17.33;;;3.85;;
27375;SDS011;14844;51.302;6.354;2022-09-09T06:56:42;18.70;;;3.95;;
27375;SDS011;14844;51.302;6.354;2022-09-09T06:58:49;14.60;;;3.85;;
27375;SDS011;14844;51.302;6.354;2022-09-09T07:01:17;16.33;;;4.10;;
27375;SDS011;14844;51.302;6.354;2022-09-09T07:03:48;15.65;;;3.20;;
27375;SDS011;14844;51.302;6.354;2022-09-09T07:06:16;12.43;;;2.30;;
27375;SDS011;14844;51.302;6.354;2022-09-09T07:08:56;16.65;;;3.20;;
27375;SDS011;14844;51.302;6.354;2022-09-09T07:11:24;13.60;;;3.30;;
27375;SDS011;14844;51.302;6.354;2022-09-09T07:13:52;17.33;;;3.72;;
27375;SDS011;14844;51.302;6.354;2022-09-09T07:16:19;16.45;;;3.20;;
27375;SDS011;14844;51.302;6.354;2022-09-09T07:18:48;15.93;;;2.83;;
27375;SDS011;14844;51.302;6.354;2022-09-09T07:21:15;11.25;;;2.75;;
27375;SDS011;14844;51.302;6.354;2022-09-09T07:23:41;11.45;;;2.65;;
27375;SDS011;14844;51.302;6.354;2022-09-09T07:26:12;16.77;;;2.67;;
27375;SDS011;14844;51.302;6.354;2022-09-09T07:28:39;10.85;;;2.20;;
27375;SDS011;14844;51.302;6.354;2022-09-09T07:31:06;10.40;;;2.25;;
27375;SDS011;14844;51.302;6.354;2022-09-09T07:33:32;10.95;;;1.70;;
27375;SDS011;14844;51.302;6.354;2022-09-09T07:36:04;11.75;;;1.60;;
27375;SDS011;14844;51.302;6.354;2022-09-09T07:38:32;12.57;;;2.13;;
27375;SDS011;14844;51.302;6.354;2022-09-09T07:41:08;10.18;;;2.08;;
27375;SDS011;14844;51.302;6.354;2022-09-09T07:46:08;9.73;;;2.00;;
27375;SDS011;14844;51.302;6.354;2022-09-09T07:48:34;11.27;;;1.95;;
27375;SDS011;14844;51.302;6.354;2022-09-09T07:51:08;7.90;;;1.67;;
27375;SDS011;14844;51.302;6.354;2022-09-09T07:53:36;10.75;;;1.88;;
27375;SDS011;14844;51.302;6.354;2022-09-09T07:56:06;7.68;;;1.70;;
27375;SDS011;14844;51.302;6.354;2022-09-09T07:58:37;10.63;;;2.20;;
27375;SDS011;14844;51.302;6.354;2022-09-09T08:01:08;7.88;;;1.65;;
27375;SDS011;14844;51.302;6.354;2022-09-09T08:03:34;14.50;;;1.80;;
27375;SDS011;14844;51.302;6.354;2022-09-09T08:06:01;10.18;;;2.10;;
27375;SDS011;14844;51.302;6.354;2022-09-09T08:08:31;8.13;;;1.73;;
27375;SDS011;14844;51.302;6.354;2022-09-09T08:11:16;11.63;;;1.80;;
27375;SDS011;14844;51.302;6.354;2022-09-09T08:13:43;14.48;;;2.03;;
27375;SDS011;14844;51.302;6.354;2022-09-09T08:18:36;14.23;;;1.90;;
27375;SDS011;14844;51.302;6.354;2022-09-09T08:21:06;13.00;;;1.98;;
27375;SDS011;14844;51.302;6.354;2022-09-09T08:23:33;7.70;;;1.77;;
27375;SDS011;14844;51.302;6.354;2022-09-09T08:28:58;9.85;;;1.85;;
27375;SDS011;14844;51.302;6.354;2022-09-09T08:31:31;10.82;;;1.90;;
27375;SDS011;14844;51.302;6.354;2022-09-09T08:34:02;10.48;;;1.70;;
27375;SDS011;14844;51.302;6.354;2022-09-09T08:36:29;6.93;;;1.55;;
27375;SDS011;14844;51.302;6.354;2022-09-09T08:38:58;13.38;;;2.13;;
27375;SDS011;14844;51.302;6.354;2022-09-09T08:44:14;5.88;;;1.70;;
27375;SDS011;14844;51.302;6.354;2022-09-09T08:49:50;7.15;;;1.50;;
27375;SDS011;14844;51.302;6.354;2022-09-09T08:52:31;11.45;;;1.60;;
27375;SDS011;14844;51.302;6.354;2022-09-09T08:55:26;11.43;;;1.50;;
27375;SDS011;14844;51.302;6.354;2022-09-09T08:57:49;10.50;;;1.80;;
27375;SDS011;14844;51.302;6.354;2022-09-09T09:00:18;7.25;;;1.35;;
27375;SDS011;14844;51.302;6.354;2022-09-09T09:02:57;8.77;;;1.63;;
27375;SDS011;14844;51.302;6.354;2022-09-09T09:05:56;12.63;;;1.60;;
27375;SDS011;14844;51.302;6.354;2022-09-09T09:11:03;7.20;;;1.40;;
27375;SDS011;14844;51.302;6.354;2022-09-09T09:13:34;7.32;;;1.40;;
27375;SDS011;14844;51.302;6.354;2022-09-09T09:16:13;6.40;;;1.42;;
27375;SDS011;14844;51.302;6.354;2022-09-09T09:18:46;6.43;;;1.50;;
27375;SDS011;14844;51.302;6.354;2022-09-09T09:21:12;11.50;;;1.48;;
27375;SDS011;14844;51.302;6.354;2022-09-09T09:23:56;9.07;;;1.60;;
27375;SDS011;14844;51.302;6.354;2022-09-09T09:26:25;5.65;;;1.02;;
27375;SDS011;14844;51.302;6.354;2022-09-09T09:28:57;6.20;;;1.48;;
27375;SDS011;14844;51.302;6.354;2022-09-09T09:31:25;7.68;;;1.67;;
27375;SDS011;14844;51.302;6.354;2022-09-09T09:33:54;6.93;;;1.40;;
27375;SDS011;14844;51.302;6.354;2022-09-09T09:36:23;4.88;;;1.20;;
27375;SDS011;14844;51.302;6.354;2022-09-09T09:38:58;7.05;;;1.10;;
27375;SDS011;14844;51.302;6.354;2022-09-09T09:44:02;5.05;;;1.08;;
27375;SDS011;14844;51.302;6.354;2022-09-09T09:46:29;7.55;;;1.48;;
27375;SDS011;14844;51.302;6.354;2022-09-09T09:48:59;5.82;;;1.20;;
27375;SDS011;14844;51.302;6.354;2022-09-09T09:51:26;7.68;;;1.30;;
27375;SDS011;14844;51.302;6.354;2022-09-09T09:53:54;3.70;;;1.25;;
27375;SDS011;14844;51.302;6.354;2022-09-09T09:56:48;7.63;;;1.10;;
27375;SDS011;14844;51.302;6.354;2022-09-09T10:01:46;7.43;;;1.23;;
27375;SDS011;14844;51.302;6.354;2022-09-09T10:06:41;8.10;;;1.77;;
27375;SDS011;14844;51.302;6.354;2022-09-09T10:09:23;4.97;;;1.08;;
27375;SDS011;14844;51.302;6.354;2022-09-09T10:14:48;6.13;;;1.10;;
27375;SDS011;14844;51.302;6.354;2022-09-09T10:20:21;7.80;;;1.45;;
27375;SDS011;14844;51.302;6.354;2022-09-09T10:34:55;5.20;;;1.13;;
27375;SDS011;14844;51.302;6.354;2022-09-09T10:37:31;8.10;;;1.55;;
27375;SDS011;14844;51.302;6.354;2022-09-09T10:42:51;6.30;;;1.33;;
27375;SDS011;14844;51.302;6.354;2022-09-09T10:48:04;4.32;;;1.10;;
27375;SDS011;14844;51.302;6.354;2022-09-09T10:50:42;7.40;;;1.30;;
27375;SDS011;14844;51.302;6.354;2022-09-09T10:55:50;7.88;;;1.20;;
27375;SDS011;14844;51.302;6.354;2022-09-09T11:00:51;6.72;;;1.33;;
27375;SDS011;14844;51.302;6.354;2022-09-09T11:03:27;6.13;;;1.27;;
27375;SDS011;14844;51.302;6.354;2022-09-09T11:08:24;4.82;;;1.13;;
27375;SDS011;14844;51.302;6.354;2022-09-09T11:13:57;7.88;;;1.58;;
27375;SDS011;14844;51.302;6.354;2022-09-09T11:16:35;7.80;;;1.33;;
27375;SDS011;14844;51.302;6.354;2022-09-09T11:19:23;5.85;;;1.08;;
27375;SDS011;14844;51.302;6.354;2022-09-09T11:21:57;7.28;;;1.42;;
27375;SDS011;14844;51.302;6.354;2022-09-09T11:24:29;5.60;;;0.93;;
27375;SDS011;14844;51.302;6.354;2022-09-09T11:27:10;9.35;;;1.08;;
27375;SDS011;14844;51.302;6.354;2022-09-09T11:29:47;6.85;;;1.13;;
27375;SDS011;14844;51.302;6.354;2022-09-09T11:34:50;8.43;;;1.08;;
27375;SDS011;14844;51.302;6.354;2022-09-09T11:37:37;4.45;;;0.82;;
27375;SDS011;14844;51.302;6.354;2022-09-09T11:40:15;3.85;;;1.02;;
27375;SDS011;14844;51.302;6.354;2022-09-09T11:45:39;5.75;;;1.00;;
27375;SDS011;14844;51.302;6.354;2022-09-09T11:48:23;3.90;;;0.88;;
27375;SDS011;14844;51.302;6.354;2022-09-09T11:53:31;5.55;;;1.00;;
27375;SDS011;14844;51.302;6.354;2022-09-09T11:56:05;3.10;;;0.90;;
27375;SDS011;14844;51.302;6.354;2022-09-09T11:58:43;4.35;;;0.93;;
27375;SDS011;14844;51.302;6.354;2022-09-09T12:01:54;5.85;;;1.38;;
27375;SDS011;14844;51.302;6.354;2022-09-09T12:04:21;8.65;;;1.30;;
27375;SDS011;14844;51.302;6.354;2022-09-09T12:07:01;4.85;;;0.95;;
27375;SDS011;14844;51.302;6.354;2022-09-09T12:09:29;3.28;;;0.93;;
27375;SDS011;14844;51.302;6.354;2022-09-09T12:15:23;4.80;;;1.08;;
27375;SDS011;14844;51.302;6.354;2022-09-09T12:17:31;4.75;;;1.30;;
27375;SDS011;14844;51.302;6.354;2022-09-09T12:20:12;7.57;;;1.23;;
27375;SDS011;14844;51.302;6.354;2022-09-09T12:22:54;5.65;;;1.20;;
27375;SDS011;14844;51.302;6.354;2022-09-09T12:34:34;5.57;;;1.50;;
27375;SDS011;14844;51.302;6.354;2022-09-09T12:37:15;4.80;;;1.23;;
27375;SDS011;14844;51.302;6.354;2022-09-09T12:42:46;4.55;;;1.30;;
27375;SDS011;14844;51.302;6.354;2022-09-09T12:45:15;5.00;;;1.13;;
27375;SDS011;14844;51.302;6.354;2022-09-09T12:50:24;5.90;;;1.30;;
27375;SDS011;14844;51.302;6.354;2022-09-09T12:52:56;5.63;;;1.20;;
27375;SDS011;14844;51.302;6.354;2022-09-09T12:55:32;5.47;;;1.40;;
27375;SDS011;14844;51.302;6.354;2022-09-09T12:58:01;6.82;;;1.40;;
27375;SDS011;14844;51.302;6.354;2022-09-09T13:00:30;7.63;;;1.55;;
27375;SDS011;14844;51.302;6.354;2022-09-09T13:02:57;5.95;;;1.27;;
27375;SDS011;14844;51.302;6.354;2022-09-09T13:05:36;5.40;;;1.20;;
27375;SDS011;14844;51.302;6.354;2022-09-09T13:08:08;7.63;;;1.05;;
27375;SDS011;14844;51.302;6.354;2022-09-09T13:10:36;3.70;;;1.05;;
27375;SDS011;14844;51.302;6.354;2022-09-09T13:13:12;5.00;;;1.17;;
27375;SDS011;14844;51.302;6.354;2022-09-09T13:15:39;4.85;;;1.02;;
27375;SDS011;14844;51.302;6.354;2022-09-09T13:18:06;4.72;;;1.17;;
27375;SDS011;14844;51.302;6.354;2022-09-09T13:20:37;5.65;;;1.13;;
27375;SDS011;14844;51.302;6.354;2022-09-09T13:23:02;5.82;;;1.33;;
27375;SDS011;14844;51.302;6.354;2022-09-09T13:25:28;6.18;;;1.20;;
27375;SDS011;14844;51.302;6.354;2022-09-09T13:28:01;4.82;;;1.08;;
27375;SDS011;14844;51.302;6.354;2022-09-09T13:30:32;5.68;;;1.13;;
27375;SDS011;14844;51.302;6.354;2022-09-09T13:38:16;5.15;;;1.23;;
27375;SDS011;14844;51.302;6.354;2022-09-09T13:43:32;5.85;;;1.38;;
27375;SDS011;14844;51.302;6.354;2022-09-09T13:46:03;4.75;;;1.13;;
27375;SDS011;14844;51.302;6.354;2022-09-09T13:48:31;4.50;;;1.25;;
27375;SDS011;14844;51.302;6.354;2022-09-09T13:51:03;6.20;;;1.42;;
27375;SDS011;14844;51.302;6.354;2022-09-09T13:53:32;7.63;;;1.30;;
27375;SDS011;14844;51.302;6.354;2022-09-09T13:55:58;5.20;;;1.27;;
27375;SDS011;14844;51.302;6.354;2022-09-09T13:58:24;4.53;;;0.80;;
27375;SDS011;14844;51.302;6.354;2022-09-09T14:00:51;4.70;;;0.90;;
27375;SDS011;14844;51.302;6.354;2022-09-09T14:03:18;8.18;;;1.42;;
27375;SDS011;14844;51.302;6.354;2022-09-09T14:05:44;4.25;;;1.23;;
27375;SDS011;14844;51.302;6.354;2022-09-09T14:08:14;7.32;;;1.13;;
27375;SDS011;14844;51.302;6.354;2022-09-09T14:10:48;5.50;;;1.40;;
27375;SDS011;14844;51.302;6.354;2022-09-09T14:13:14;7.88;;;1.40;;
27375;SDS011;14844;51.302;6.354;2022-09-09T14:15:40;8.00;;;1.52;;
27375;SDS011;14844;51.302;6.354;2022-09-09T14:18:06;5.00;;;1.23;;
27375;SDS011;14844;51.302;6.354;2022-09-09T14:20:34;5.38;;;1.00;;
27375;SDS011;14844;51.302;6.354;2022-09-09T14:22:59;4.13;;;0.90;;
27375;SDS011;14844;51.302;6.354;2022-09-09T14:25:25;5.50;;;1.00;;
27375;SDS011;14844;51.302;6.354;2022-09-09T14:27:50;7.32;;;0.93;;
27375;SDS011;14844;51.302;6.354;2022-09-09T14:30:16;3.92;;;1.02;;
27375;SDS011;14844;51.302;6.354;2022-09-09T14:32:42;2.65;;;0.70;;
27375;SDS011;14844;51.302;6.354;2022-09-09T14:35:07;3.35;;;0.82;;
27375;SDS011;14844;51.302;6.354;2022-09-09T14:37:33;3.03;;;0.95;;
27375;SDS011;14844;51.302;6.354;2022-09-09T14:39:59;2.47;;;0.80;;
27375;SDS011;14844;51.302;6.354;2022-09-09T14:42:25;3.40;;;0.70;;
27375;SDS011;14844;51.302;6.354;2022-09-09T14:44:51;2.78;;;0.80;;
27375;SDS011;14844;51.302;6.354;2022-09-09T14:47:17;2.58;;;0.73;;
27375;SDS011;14844;51.302;6.354;2022-09-09T14:49:42;2.25;;;0.60;;
27375;SDS011;14844;51.302;6.354;2022-09-09T14:52:08;3.15;;;0.60;;
27375;SDS011;14844;51.302;6.354;2022-09-09T14:54:34;3.60;;;1.10;;
27375;SDS011;14844;51.302;6.354;2022-09-09T14:56:59;3.60;;;0.68;;
27375;SDS011;14844;51.302;6.354;2022-09-09T14:59:25;3.92;;;1.08;;
27375;SDS011;14844;51.302;6.354;2022-09-09T15:01:51;4.38;;;1.00;;
27375;SDS011;14844;51.302;6.354;2022-09-09T15:04:17;3.33;;;0.90;;
27375;SDS011;14844;51.302;6.354;2022-09-09T15:06:43;3.40;;;0.88;;
27375;SDS011;14844;51.302;6.354;2022-09-09T15:09:13;2.92;;;0.82;;
27375;SDS011;14844;51.302;6.354;2022-09-09T15:11:38;5.65;;;1.00;;
27375;SDS011;14844;51.302;6.354;2022-09-09T15:14:05;5.70;;;1.00;;
27375;SDS011;14844;51.302;6.354;2022-09-09T15:16:32;3.08;;;0.75;;
27375;SDS011;14844;51.302;6.354;2022-09-09T15:18:59;3.97;;;0.80;;
27375;SDS011;14844;51.302;6.354;2022-09-09T15:21:26;5.13;;;1.08;;
27375;SDS011;14844;51.302;6.354;2022-09-09T15:23:53;2.30;;;0.73;;
27375;SDS011;14844;51.302;6.354;2022-09-09T15:26:19;4.38;;;0.80;;
27375;SDS011;14844;51.302;6.354;2022-09-09T15:28:45;4.30;;;1.10;;
27375;SDS011;14844;51.302;6.354;2022-09-09T15:33:39;2.88;;;0.60;;
27375;SDS011;14844;51.302;6.354;2022-09-09T15:36:15;4.03;;;0.80;;
27375;SDS011;14844;51.302;6.354;2022-09-09T15:38:44;4.13;;;1.00;;
27375;SDS011;14844;51.302;6.354;2022-09-09T15:41:10;4.70;;;0.93;;
27375;SDS011;14844;51.302;6.354;2022-09-09T15:43:37;3.50;;;1.17;;
27375;SDS011;14844;51.302;6.354;2022-09-09T15:46:10;2.90;;;0.80;;
27375;SDS011;14844;51.302;6.354;2022-09-09T15:48:51;4.18;;;1.00;;
27375;SDS011;14844;51.302;6.354;2022-09-09T15:51:17;4.55;;;0.90;;
27375;SDS011;14844;51.302;6.354;2022-09-09T15:53:43;3.53;;;0.70;;
27375;SDS011;14844;51.302;6.354;2022-09-09T15:56:09;4.00;;;1.10;;
27375;SDS011;14844;51.302;6.354;2022-09-09T15:58:35;7.68;;;1.20;;
27375;SDS011;14844;51.302;6.354;2022-09-09T16:01:05;4.68;;;1.20;;
27375;SDS011;14844;51.302;6.354;2022-09-09T16:03:34;4.97;;;1.10;;
27375;SDS011;14844;51.302;6.354;2022-09-09T16:06:01;3.97;;;1.10;;
27375;SDS011;14844;51.302;6.354;2022-09-09T16:08:32;4.22;;;0.80;;
27375;SDS011;14844;51.302;6.354;2022-09-09T16:13:32;4.82;;;1.10;;
27375;SDS011;14844;51.302;6.354;2022-09-09T16:15:59;4.00;;;0.80;;
27375;SDS011;14844;51.302;6.354;2022-09-09T16:18:25;5.25;;;1.05;;
27375;SDS011;14844;51.302;6.354;2022-09-09T16:20:54;4.80;;;1.20;;
27375;SDS011;14844;51.302;6.354;2022-09-09T16:23:20;4.13;;;1.27;;
27375;SDS011;14844;51.302;6.354;2022-09-09T16:25:53;6.18;;;1.25;;
27375;SDS011;14844;51.302;6.354;2022-09-09T16:28:21;7.03;;;1.48;;
27375;SDS011;14844;51.302;6.354;2022-09-09T16:30:48;4.82;;;1.10;;
27375;SDS011;14844;51.302;6.354;2022-09-09T16:33:14;5.65;;;1.20;;
27375;SDS011;14844;51.302;6.354;2022-09-09T16:35:40;5.68;;;1.35;;
27375;SDS011;14844;51.302;6.354;2022-09-09T16:38:06;5.25;;;1.23;;
27375;SDS011;14844;51.302;6.354;2022-09-09T16:40:35;4.90;;;1.13;;
27375;SDS011;14844;51.302;6.354;2022-09-09T16:43:04;7.45;;;1.30;;
27375;SDS011;14844;51.302;6.354;2022-09-09T16:45:40;5.93;;;1.08;;
27375;SDS011;14844;51.302;6.354;2022-09-09T16:48:10;6.07;;;1.30;;
27375;SDS011;14844;51.302;6.354;2022-09-09T16:50:36;4.82;;;1.30;;
27375;SDS011;14844;51.302;6.354;2022-09-09T16:53:01;4.90;;;1.30;;
27375;SDS011;14844;51.302;6.354;2022-09-09T16:55:31;4.93;;;1.23;;
27375;SDS011;14844;51.302;6.354;2022-09-09T16:57:57;4.68;;;1.30;;
27375;SDS011;14844;51.302;6.354;2022-09-09T17:00:22;13.77;;;2.00;;
27375;SDS011;14844;51.302;6.354;2022-09-09T17:02:48;7.78;;;1.40;;
27375;SDS011;14844;51.302;6.354;2022-09-09T17:05:14;4.60;;;1.58;;
27375;SDS011;14844;51.302;6.354;2022-09-09T17:07:39;5.53;;;1.38;;
27375;SDS011;14844;51.302;6.354;2022-09-09T17:10:05;7.68;;;1.88;;